createdAt,value
2019-05-21T00:04:28.357Z,14.10
2019-05-21T00:09:35.058Z,14.28
2019-05-21T00:14:37.433Z,14.03
2019-05-21T00:19:39.588Z,14.23
2019-05-21T00:24:41.853Z,14.16
2019-05-21T00:30:23.713Z,13.94
2019-05-21T00:36:02.593Z,14.04
2019-05-21T00:41:41.328Z,14.07
2019-05-21T00:46:48.446Z,14.16
2019-05-21T00:52:06.541Z,14.06
2019-05-21T00:56:58.541Z,14.06
2019-05-21T01:02:00.588Z,14.14
2019-05-21T01:07:04.890Z,13.95
2019-05-21T01:12:06.898Z,14.26
2019-05-21T01:17:10.676Z,14.00
2019-05-21T01:22:12.752Z,14.05
2019-05-21T01:27:16.661Z,14.07
2019-05-21T01:32:20.590Z,14.26
2019-05-21T01:37:42.446Z,14.20
2019-05-21T01:42:47.061Z,14.25
2019-05-21T01:47:49.119Z,14.12
2019-05-21T01:52:51.450Z,14.06
2019-05-21T01:57:55.596Z,13.95
2019-05-21T02:02:57.641Z,14.10
2019-05-21T02:07:59.703Z,14.09
2019-05-21T02:13:06.538Z,13.87
2019-05-21T02:18:08.698Z,13.96
2019-05-21T02:23:16.063Z,13.86
2019-05-21T02:28:18.117Z,13.65
2019-05-21T02:33:20.445Z,13.65
2019-05-21T02:38:22.503Z,13.37
2019-05-21T02:43:26.326Z,13.60
2019-05-21T02:48:28.379Z,13.64
2019-05-21T02:53:34.345Z,13.70
2019-05-21T02:58:34.481Z,13.67
2019-05-21T03:03:36.507Z,13.40
2019-05-21T03:08:41.271Z,13.51
2019-05-21T03:13:48.854Z,13.71
2019-05-21T03:18:50.894Z,13.31
2019-05-21T03:23:53.173Z,13.45
2019-05-21T03:28:55.343Z,13.39
2019-05-21T03:34:05.752Z,13.55
2019-05-21T03:39:09.144Z,13.37
2019-05-21T03:44:12.379Z,13.30
2019-05-21T03:49:17.100Z,13.10
2019-05-21T03:54:19.172Z,13.09
2019-05-21T03:59:21.197Z,12.94
2019-05-21T04:04:28.943Z,13.21
2019-05-21T04:09:31.081Z,13.25
2019-05-21T04:14:42.481Z,13.24
2019-05-21T04:19:46.419Z,12.97
2019-05-21T04:24:50.431Z,13.16
2019-05-21T04:29:52.507Z,13.13
2019-05-21T04:34:54.678Z,13.46
2019-05-21T04:39:56.838Z,13.19
2019-05-21T04:44:59.330Z,13.26
2019-05-21T04:50:01.454Z,13.53
2019-05-21T04:55:04.194Z,13.22
2019-05-21T05:00:09.433Z,13.32
2019-05-21T05:05:15.470Z,13.46
2019-05-21T05:10:17.493Z,13.45
2019-05-21T05:15:24.286Z,13.32
2019-05-21T05:20:26.374Z,13.62
2019-05-21T05:25:33.000Z,13.34
2019-05-21T05:30:37.923Z,13.39
2019-05-21T05:35:40.468Z,13.73
2019-05-21T05:40:42.537Z,13.70
2019-05-21T05:45:47.403Z,13.93
2019-05-21T05:50:51.686Z,13.89
2019-05-21T05:56:01.629Z,13.62
2019-05-21T06:01:03.718Z,13.74
2019-05-21T06:06:08.789Z,13.82
2019-05-21T06:11:12.095Z,14.05
2019-05-21T06:16:14.461Z,13.95
2019-05-21T06:21:16.515Z,13.95
2019-05-21T06:26:20.063Z,13.86
2019-05-21T06:31:21.930Z,14.09
2019-05-21T06:36:23.913Z,13.94
2019-05-21T06:41:25.828Z,14.20
2019-05-21T06:46:29.165Z,14.30
2019-05-21T06:51:32.768Z,14.24
2019-05-21T06:56:34.894Z,14.35
2019-05-21T07:01:36.704Z,14.35
2019-05-21T07:06:38.698Z,14.43
2019-05-21T07:11:42.617Z,14.43
2019-05-21T07:16:44.731Z,14.41
2019-05-21T07:21:48.065Z,14.64
2019-05-21T07:26:50.163Z,14.39
2019-05-21T07:31:52.069Z,14.60
2019-05-21T07:36:59.040Z,14.54
2019-05-21T07:42:00.954Z,14.29
2019-05-21T07:47:02.857Z,14.50
2019-05-21T07:52:04.773Z,14.43
2019-05-21T07:57:07.880Z,14.46
2019-05-21T08:02:09.798Z,14.49
2019-05-21T08:07:11.754Z,14.48
2019-05-21T08:12:35.487Z,14.53
2019-05-21T08:17:17.725Z,14.49
2019-05-21T08:22:21.838Z,14.66
2019-05-21T08:27:23.741Z,14.67
2019-05-21T08:32:28.525Z,14.55
2019-05-21T08:37:30.331Z,14.74
2019-05-21T08:42:34.313Z,14.72
2019-05-21T08:47:36.251Z,14.62
2019-05-21T08:52:38.255Z,14.89
2019-05-21T08:57:42.987Z,14.74
2019-05-21T09:02:44.870Z,14.58
2019-05-21T09:07:53.112Z,14.78
2019-05-21T09:12:52.688Z,14.85
2019-05-21T09:17:54.678Z,14.44
2019-05-21T09:22:59.680Z,14.65
2019-05-21T09:28:01.584Z,14.97
2019-05-21T09:33:03.731Z,14.75
2019-05-21T09:38:05.903Z,14.62
2019-05-21T09:43:07.921Z,14.77
2019-05-21T09:48:12.404Z,14.59
2019-05-21T09:53:17.069Z,15.00
2019-05-21T09:58:27.498Z,14.97
2019-05-21T10:03:31.847Z,14.69
2019-05-21T10:08:36.992Z,14.91
2019-05-21T10:13:37.562Z,14.99
2019-05-21T10:18:40.525Z,14.97
2019-05-21T10:23:42.490Z,15.04
2019-05-21T10:28:44.384Z,14.98
2019-05-21T10:33:47.204Z,15.08
2019-05-21T10:38:49.152Z,15.09
2019-05-21T10:43:54.156Z,15.49
2019-05-21T10:48:56.087Z,15.42
2019-05-21T10:53:58.214Z,15.60
2019-05-21T10:59:00.404Z,15.27
2019-05-21T11:04:36.882Z,15.46
2019-05-21T11:09:38.855Z,15.28
2019-05-21T11:14:40.765Z,15.64
2019-05-21T11:19:45.754Z,15.47
2019-05-21T11:24:47.729Z,15.45
2019-05-21T11:29:49.793Z,15.21
2019-05-21T11:34:52.965Z,15.26
2019-05-21T11:39:57.691Z,15.67
2019-05-21T11:44:59.565Z,15.91
2019-05-21T11:50:01.533Z,16.03
2019-05-21T11:55:05.416Z,15.97
2019-05-21T12:00:10.923Z,16.09
2019-05-21T12:05:12.854Z,15.73
2019-05-21T12:10:16.352Z,15.96
2019-05-21T12:15:18.293Z,16.04
2019-05-21T12:20:35.209Z,15.93
2019-05-21T12:25:29.194Z,15.78
2019-05-21T12:30:33.455Z,15.78
2019-05-21T12:35:38.212Z,15.98
2019-05-21T12:40:41.905Z,16.03
2019-05-21T12:45:47.934Z,16.19
2019-05-21T12:50:49.747Z,16.20
2019-05-21T12:55:51.985Z,16.07
2019-05-21T13:00:53.893Z,16.15
2019-05-21T13:05:55.976Z,16.44
2019-05-21T13:10:59.051Z,16.20
2019-05-21T13:16:01.138Z,16.00
2019-05-21T13:21:03.305Z,16.41
2019-05-21T13:26:08.829Z,16.25
2019-05-21T13:31:10.953Z,16.36
2019-05-21T13:36:13.118Z,16.15
2019-05-21T13:41:15.543Z,15.58
2019-05-21T13:46:17.721Z,15.42
2019-05-21T13:51:19.804Z,15.36
2019-05-21T13:56:21.937Z,15.27
2019-05-21T14:01:39.180Z,15.66
2019-05-21T14:06:32.167Z,15.27
2019-05-21T14:11:34.187Z,15.53
2019-05-21T14:16:38.165Z,15.23
2019-05-21T14:21:45.612Z,15.46
2019-05-21T14:26:47.626Z,15.27
2019-05-21T14:31:51.349Z,14.92
2019-05-21T14:36:53.407Z,14.85
2019-05-21T14:41:55.352Z,15.05
2019-05-21T14:47:00.137Z,14.95
2019-05-21T14:52:01.994Z,15.17
2019-05-21T14:57:11.196Z,14.92
2019-05-21T15:02:14.665Z,15.00
2019-05-21T15:07:19.316Z,15.19
2019-05-21T15:12:23.331Z,15.06
2019-05-21T15:17:28.367Z,15.11
2019-05-21T15:22:35.428Z,15.15
2019-05-21T15:27:37.347Z,15.01
2019-05-21T15:32:41.205Z,15.21
2019-05-21T15:37:45.304Z,15.06
2019-05-21T15:42:53.334Z,15.19
2019-05-21T15:47:55.949Z,14.93
2019-05-21T15:52:57.814Z,15.07
2019-05-21T15:58:06.573Z,15.27
2019-05-21T16:03:08.507Z,15.02
2019-05-21T16:08:11.917Z,15.06
2019-05-21T16:13:17.587Z,14.95
2019-05-21T16:18:19.518Z,14.83
2019-05-21T16:23:24.448Z,14.65
2019-05-21T16:28:31.854Z,15.00
2019-05-21T16:33:39.134Z,14.68
2019-05-21T16:38:43.227Z,14.80
2019-05-21T16:43:47.795Z,14.77
2019-05-21T16:48:50.975Z,14.57
2019-05-21T16:53:53.015Z,14.96
2019-05-21T16:58:54.982Z,14.72
2019-05-21T17:04:00.521Z,14.90
2019-05-21T17:09:04.145Z,14.92
2019-05-21T17:14:10.774Z,14.46
2019-05-21T17:19:12.718Z,14.67
2019-05-21T17:24:15.032Z,14.55
2019-05-21T17:29:16.954Z,14.41
2019-05-21T17:34:18.915Z,14.15
2019-05-21T17:39:20.786Z,14.22
2019-05-21T17:44:24.891Z,14.25
2019-05-21T17:49:26.491Z,14.11
2019-05-21T17:54:28.408Z,14.12
2019-05-21T17:59:33.114Z,14.06
2019-05-21T18:04:41.531Z,14.20
2019-05-21T18:09:43.561Z,14.27
2019-05-21T18:14:45.826Z,14.15
2019-05-21T18:19:49.380Z,14.37
2019-05-21T18:24:54.378Z,14.27
2019-05-21T18:30:03.181Z,14.35
2019-05-21T18:35:06.740Z,14.23
2019-05-21T18:40:11.179Z,14.16
2019-05-21T18:45:15.288Z,14.23
2019-05-21T18:50:34.464Z,14.19
2019-05-21T18:55:23.421Z,13.84
2019-05-21T19:00:25.851Z,13.79
2019-05-21T19:05:28.068Z,14.09
2019-05-21T19:10:32.895Z,13.87
2019-05-21T19:15:35.375Z,13.86
2019-05-21T19:20:38.254Z,14.00
2019-05-21T19:25:40.753Z,13.96
2019-05-21T19:30:42.662Z,13.94
2019-05-21T19:35:46.969Z,13.90
2019-05-21T19:40:48.876Z,13.75
2019-05-21T19:45:50.774Z,13.05
2019-05-21T19:51:00.156Z,13.16
2019-05-21T19:56:08.401Z,14.25
2019-05-21T20:01:11.642Z,14.06
2019-05-21T20:06:14.115Z,14.33
2019-05-21T20:11:19.163Z,13.86
2019-05-21T20:16:22.326Z,14.16
2019-05-21T20:21:26.984Z,13.91
2019-05-21T20:26:32.556Z,14.02
2019-05-21T20:31:36.447Z,13.94
2019-05-21T20:36:40.801Z,13.77
2019-05-21T20:41:43.441Z,13.95
2019-05-21T20:46:45.965Z,14.03
2019-05-21T20:51:48.296Z,13.69
2019-05-21T20:56:50.368Z,13.84
2019-05-21T21:01:52.549Z,13.93
2019-05-21T21:06:55.100Z,13.89
2019-05-21T21:11:57.717Z,13.69
2019-05-21T21:17:04.185Z,13.79
2019-05-21T21:22:06.202Z,14.02
2019-05-21T21:27:08.306Z,14.00
2019-05-21T21:32:10.504Z,13.79
2019-05-21T21:37:12.574Z,13.87
2019-05-21T21:42:14.669Z,13.93
2019-05-21T21:47:16.576Z,13.63
2019-05-21T21:52:18.677Z,13.75
2019-05-21T21:57:25.173Z,13.58
2019-05-21T22:02:30.685Z,13.58
2019-05-21T22:07:32.671Z,13.57
2019-05-21T22:12:36.806Z,13.72
2019-05-21T22:17:40.763Z,13.68
2019-05-21T22:22:43.568Z,13.73
2019-05-21T22:27:45.671Z,13.71
2019-05-21T22:32:47.731Z,13.79
2019-05-21T22:37:52.044Z,13.76
2019-05-21T22:42:55.783Z,13.76
2019-05-21T22:47:57.731Z,13.61
2019-05-21T22:53:00.971Z,13.74
2019-05-21T22:58:05.149Z,13.65
2019-05-21T23:03:07.798Z,13.65
2019-05-21T23:08:10.011Z,13.74
2019-05-21T23:13:11.950Z,13.70
2019-05-21T23:18:14.055Z,13.70
2019-05-21T23:23:16.547Z,13.59
2019-05-21T23:28:18.958Z,13.49
2019-05-21T23:33:25.601Z,13.53
2019-05-21T23:38:29.945Z,13.22
2019-05-21T23:43:34.747Z,13.62
2019-05-21T23:48:37.857Z,13.75
2019-05-21T23:53:40.260Z,13.61
2019-05-21T23:58:43.918Z,13.48
